Port Orford, OR

5:01 AM PDT on August 29, 2014 (GMT -0700)
Port Orford RV Village | Change Station
CLOSE
Current Station
Personal Weather Station
Location: Port Orford, OR
Elevation: 47 ft
Nearby Weather Stations

Elev 47 ft 42.76 °N, 124.49 °W | Updated 59 minutes ago

Overcast
Overcast
58.6 °F
Feels Like 58.6 °F
N
4.0
Wind Variable Wind from WNW
Gusts 5.0 mph

Today
High -- | Low -- °F
--% Chance of Precip.
Yesterday
High -- | Low -- °F
Precip. -- in
6:39 AM 7:57 PM
Waxing Crescent, 14% visible
Pressure 30.04 in
Visibility 2.5 miles
Clouds Overcast 600 ft
Dew Point 58 °F
Humidity 96%
Rainfall 0.00 in
Snow Depth Not available.
UV 0 out of 12
Pollen 6.50 out of 12
Air Quality Not available.
Flu Activity Not available.
METAR KOTH 291155Z 00000KT 2 1/2SM OVC006 14/14 A3004 RMK AO1 10150 20140 57007

More Conditions Fewer Conditions

Pressure 30.04 in
Visibility 2.5 miles
Clouds Overcast 600 ft
Dew Point 58 °F
Humidity 96%
Rainfall 0.00 in
Snow Depth Not available.
UV 0 out of 12
Pollen 6.50 out of 12
Air Quality Not available.
Flu Activity Not available.
METAR KOTH 291155Z 00000KT 2 1/2SM OVC006 14/14 A3004 RMK AO1 10150 20140 57007

More Conditions Fewer Conditions

10-Day Weather Forecast

Almanac

Astronomy

Aug. 29, 2014 Rise Set
Actual Time 6:39 AM PDT 7:57 PM PDT
Civil Twilight 6:10 AM PDT 8:26 PM PDT
Nautical Twilight 5:35 AM PDT 9:01 PM PDT
Astronomical Twilight 4:57 AM PDT 9:38 PM PDT
Moon 10:41 AM PDT 9:51 PM PDT
Length of Visible Light 14h 16m
Length of Day
13h 17m
Tomorrow will be 2m 46s shorter.
Waxing Crescent, 14% of the Moon is Illuminated
Today
Waxing Crescent
Sep 2
First Quarter
Sep 8
Full
Sep 15
Last Quarter
Sep 24
New

Today's Extremes

State Highs State Lows

Community

WunderPhotos

Upload Photos

1,748,214 photos uploaded!

Nearby

Snow Depth

Station Depth Elevation
Bigelow Camp 1 in 5120 ft
Fish Lake 0 in 4665 ft
Billie Creek Divide 0 in 5300 ft
Holland Meadows 0 in 4900 ft
Annie Springs 0 in 6020 ft

Earthquake Activity

City Distance Mag. Time & Date
No recent earthquake activity has been reported nearby.
Minimum magnitude displayed is 2.5.

Coastal Water Temperatures

Place Temperature
Port Orford, OR 51.1 °F
Crescent City, CA 62.1 °F
Charleston, OR 52.0 °F

Nearby Weather Stations